»·PEaware :: N374SA KBFL-KMHV

N374SA :: KBFL-KMHV

FLIGHT INFORMATION

Flight Status: Arrived
Operator: Privately registered:
United States
More flights under this callsign
Pilot: Michael S. (17605)
Aircraft: CESSNA 172 SKYHAWK
(C172)
More flights by this aircraft type
Origin: KBFL Meadows
United States
Destination: KMHV Mojave
United States
More flights between these airports :: More routes between these airports
Route: +DIRECT
File this flight plan on PilotEdge
Remarks: Cat-6 rating
Altitude:
(Current/Filed)
7,500ft
Speed:
(Current/Filed)
115kts
Departed: 04-Jan-18 03:59 PM
Arrived: 04-Jan-18 04:29 PM
Distance/Time
Traveled:
121nm/0:30
Distance/Time
To Go:
Arrived

Flight Plot

Page will automatically refresh every two minutes.


Map Options




Map Legend


Flown Route
Filed Route
Departure Airport
Arrival Airport
Navaid (VOR, NDB)
Fix

Horizontal Profiles

Position Reports

Time Latitude Longitude Heading Altitude Ground
Speed
04-Jan-18 15:53 35.437115 -119.055111 87 510ft 0kts
04-Jan-18 15:54 35.437115 -119.055111 87 510ft 0kts
04-Jan-18 15:55 35.437115 -119.055111 87 510ft 0kts
04-Jan-18 15:56 35.437115 -119.055111 87 510ft 0kts
04-Jan-18 15:57 35.437115 -119.055111 87 510ft 0kts
04-Jan-18 15:58 35.437115 -119.055111 87 510ft 0kts
04-Jan-18 15:59 35.437115 -119.055111 87 510ft 0kts
04-Jan-18 16:00 35.437114 -119.055098 100 510ft 2kts
04-Jan-18 16:01 35.432724 -119.052756 134 510ft 19kts
04-Jan-18 16:02 35.427828 -119.046810 136 510ft 27kts
04-Jan-18 16:03 35.425492 -119.044779 222 510ft 0kts
04-Jan-18 16:04 35.425492 -119.044779 222 510ft 0kts
04-Jan-18 16:05 35.429507 -119.050865 319 625ft 77kts
04-Jan-18 16:06 35.448259 -119.058257 29 1714ft 72kts
04-Jan-18 16:07 35.443099 -119.035002 145 2468ft 89kts
04-Jan-18 16:08 35.426167 -119.015058 130 3464ft 81kts
04-Jan-18 16:09 35.414175 -118.994032 125 4450ft 69kts
04-Jan-18 16:10 35.403910 -118.972801 124 5261ft 75kts
04-Jan-18 16:11 35.393679 -118.949945 123 6058ft 77kts
04-Jan-18 16:12 35.384024 -118.927363 124 6848ft 72kts
04-Jan-18 16:13 35.375232 -118.906518 125 7515ft 78kts
04-Jan-18 16:14 35.361071 -118.873732 122 7492ft 123kts
04-Jan-18 16:15 35.346655 -118.839287 122 7982ft 109kts
04-Jan-18 16:16 35.333064 -118.806703 122 8478ft 107kts
04-Jan-18 16:17 35.319488 -118.774224 122 8977ft 107kts
04-Jan-18 16:18 35.305890 -118.741693 122 9476ft 108kts
04-Jan-18 16:19 35.290265 -118.704571 121 9514ft 132kts
04-Jan-18 16:20 35.273624 -118.663644 119 9521ft 136kts
04-Jan-18 16:21 35.255443 -118.619338 119 9003ft 154kts
04-Jan-18 16:22 35.235550 -118.571852 118 8312ft 158kts
04-Jan-18 16:23 35.215553 -118.524205 117 7715ft 155kts
04-Jan-18 16:24 35.196921 -118.479931 118 7581ft 129kts
04-Jan-18 16:25 35.181351 -118.442931 117 7584ft 123kts
04-Jan-18 16:26 35.164939 -118.403971 118 7583ft 129kts
04-Jan-18 16:27 35.148629 -118.365314 118 7583ft 128kts
04-Jan-18 16:28 35.132510 -118.327169 118 7472ft 135kts
04-Jan-18 16:29 35.114534 -118.284670 119 7008ft 141kts
04-Jan-18 16:30 35.096240 -118.241490 119 6460ft 146kts
04-Jan-18 16:31 35.077001 -118.196894 126 5126ft 159kts
04-Jan-18 16:32 35.064030 -118.153195 86 3522ft 118kts
04-Jan-18 16:33 35.065564 -118.122485 125 3552ft 70kts
04-Jan-18 16:34 35.059600 -118.130669 265 3202ft 57kts
04-Jan-18 16:35 35.059173 -118.146578 268 2795ft 26kts
04-Jan-18 16:36 35.058566 -118.149909 135 2795ft 0kts
04-Jan-18 16:37 35.057568 -118.150685 267 2795ft 12kts
04-Jan-18 16:38 35.056554 -118.152046 343 2795ft 0kts
04-Jan-18 16:39 35.056554 -118.152046 343 2795ft 0kts
04-Jan-18 16:46 34.102425 -117.224716 93 1161ft 0kts
04-Jan-18 16:47 34.102425 -117.224716 93 1161ft 0kts
04-Jan-18 16:48 34.102425 -117.224716 93 1161ft 0kts
04-Jan-18 16:49 34.102425 -117.224716 93 1161ft 0kts

Navigation Log

Ident Type
1. KBFL Airport
2. KMHV Airport